sensor_id;sensor_type;location;lat;lon;timestamp;pressure;altitude;pressure_sealevel;temperature;humidity
5883;BME280;2967;51.488;6.618;2023-01-30T00:03:24;101600.94;;;4.60;100.00
5883;BME280;2967;51.488;6.618;2023-01-30T00:08:28;101587.03;;;4.58;100.00
5883;BME280;2967;51.488;6.618;2023-01-30T00:13:31;101588.25;;;4.75;100.00
5883;BME280;2967;51.488;6.618;2023-01-30T00:18:34;101579.03;;;4.62;100.00
5883;BME280;2967;51.488;6.618;2023-01-30T00:23:38;101508.16;;;4.36;100.00
5883;BME280;2967;51.488;6.618;2023-01-30T00:28:41;101516.22;;;4.59;100.00
5883;BME280;2967;51.488;6.618;2023-01-30T00:33:44;101536.94;;;4.96;100.00
5883;BME280;2967;51.488;6.618;2023-01-30T00:38:48;101515.59;;;4.80;100.00
5883;BME280;2967;51.488;6.618;2023-01-30T00:43:51;101516.31;;;4.85;100.00
5883;BME280;2967;51.488;6.618;2023-01-30T00:49:13;101513.16;;;5.03;100.00
5883;BME280;2967;51.488;6.618;2023-01-30T00:54:17;101503.47;;;5.05;100.00
5883;BME280;2967;51.488;6.618;2023-01-30T00:59:20;101501.13;;;4.96;100.00
5883;BME280;2967;51.488;6.618;2023-01-30T01:04:23;101507.81;;;5.06;100.00
5883;BME280;2967;51.488;6.618;2023-01-30T01:09:27;101499.84;;;5.09;100.00
5883;BME280;2967;51.488;6.618;2023-01-30T01:14:30;101493.25;;;5.23;100.00
5883;BME280;2967;51.488;6.618;2023-01-30T01:19:34;101478.44;;;5.22;100.00
5883;BME280;2967;51.488;6.618;2023-01-30T01:24:38;101477.47;;;5.25;100.00
5883;BME280;2967;51.488;6.618;2023-01-30T01:29:42;101469.38;;;5.31;100.00
5883;BME280;2967;51.488;6.618;2023-01-30T01:34:44;101469.56;;;5.52;100.00
5883;BME280;2967;51.488;6.618;2023-01-30T01:39:48;101481.88;;;5.50;100.00
5883;BME280;2967;51.488;6.618;2023-01-30T01:45:19;101469.72;;;5.48;100.00
5883;BME280;2967;51.488;6.618;2023-01-30T01:50:25;101468.00;;;5.47;100.00
5883;BME280;2967;51.488;6.618;2023-01-30T01:55:30;101434.38;;;5.58;100.00
5883;BME280;2967;51.488;6.618;2023-01-30T02:06:04;101414.31;;;5.57;100.00
5883;BME280;2967;51.488;6.618;2023-01-30T02:11:17;101426.84;;;5.73;100.00
5883;BME280;2967;51.488;6.618;2023-01-30T02:16:22;101397.88;;;5.76;100.00
5883;BME280;2967;51.488;6.618;2023-01-30T02:22:00;101389.28;;;5.71;100.00
5883;BME280;2967;51.488;6.618;2023-01-30T02:27:18;101394.09;;;5.85;100.00
5883;BME280;2967;51.488;6.618;2023-01-30T02:32:32;101373.84;;;5.88;100.00
5883;BME280;2967;51.488;6.618;2023-01-30T02:37:46;101366.59;;;5.70;100.00
5883;BME280;2967;51.488;6.618;2023-01-30T02:42:59;101343.00;;;5.69;100.00
5883;BME280;2967;51.488;6.618;2023-01-30T02:48:10;101359.63;;;5.94;100.00
5883;BME280;2967;51.488;6.618;2023-01-30T02:53:15;101363.91;;;5.96;100.00
5883;BME280;2967;51.488;6.618;2023-01-30T02:58:20;101372.47;;;5.77;100.00
5883;BME280;2967;51.488;6.618;2023-01-30T03:03:46;101352.34;;;6.02;100.00
5883;BME280;2967;51.488;6.618;2023-01-30T03:09:01;101338.13;;;6.07;100.00
5883;BME280;2967;51.488;6.618;2023-01-30T03:14:17;101324.41;;;5.99;100.00
5883;BME280;2967;51.488;6.618;2023-01-30T03:19:25;101322.44;;;6.04;100.00
5883;BME280;2967;51.488;6.618;2023-01-30T03:24:34;101299.28;;;5.92;100.00
5883;BME280;2967;51.488;6.618;2023-01-30T03:29:37;101304.59;;;5.91;100.00
5883;BME280;2967;51.488;6.618;2023-01-30T03:34:41;101314.91;;;5.95;100.00
5883;BME280;2967;51.488;6.618;2023-01-30T03:39:44;101315.66;;;5.99;100.00
5883;BME280;2967;51.488;6.618;2023-01-30T03:44:49;101300.25;;;6.13;100.00
5883;BME280;2967;51.488;6.618;2023-01-30T03:49:53;101292.13;;;6.19;100.00
5883;BME280;2967;51.488;6.618;2023-01-30T03:54:55;101274.59;;;6.19;100.00
5883;BME280;2967;51.488;6.618;2023-01-30T03:59:58;101271.84;;;6.22;100.00
5883;BME280;2967;51.488;6.618;2023-01-30T04:05:03;101271.66;;;6.05;100.00
5883;BME280;2967;51.488;6.618;2023-01-30T04:10:06;101272.47;;;6.07;100.00
5883;BME280;2967;51.488;6.618;2023-01-30T04:15:10;101276.34;;;5.97;100.00
5883;BME280;2967;51.488;6.618;2023-01-30T04:20:26;101270.28;;;6.18;100.00
5883;BME280;2967;51.488;6.618;2023-01-30T04:25:30;101260.13;;;6.09;100.00
5883;BME280;2967;51.488;6.618;2023-01-30T04:30:34;101256.22;;;6.19;100.00
5883;BME280;2967;51.488;6.618;2023-01-30T04:36:05;101251.16;;;6.15;100.00
5883;BME280;2967;51.488;6.618;2023-01-30T04:41:08;101260.38;;;6.25;100.00
5883;BME280;2967;51.488;6.618;2023-01-30T04:46:14;101152.16;;;5.72;100.00
5883;BME280;2967;51.488;6.618;2023-01-30T04:51:18;101235.13;;;5.99;100.00
5883;BME280;2967;51.488;6.618;2023-01-30T04:56:22;101241.31;;;6.20;100.00
5883;BME280;2967;51.488;6.618;2023-01-30T05:01:29;101253.78;;;6.36;100.00
5883;BME280;2967;51.488;6.618;2023-01-30T05:06:34;101244.47;;;6.28;100.00
5883;BME280;2967;51.488;6.618;2023-01-30T05:11:37;101221.28;;;6.17;100.00
5883;BME280;2967;51.488;6.618;2023-01-30T05:16:40;101245.78;;;6.39;100.00
5883;BME280;2967;51.488;6.618;2023-01-30T05:21:44;101241.78;;;6.51;100.00
5883;BME280;2967;51.488;6.618;2023-01-30T05:26:46;101238.91;;;6.57;100.00
5883;BME280;2967;51.488;6.618;2023-01-30T05:31:49;101218.22;;;6.49;100.00
5883;BME280;2967;51.488;6.618;2023-01-30T05:36:53;101217.16;;;6.53;100.00
5883;BME280;2967;51.488;6.618;2023-01-30T05:41:56;101232.75;;;6.78;100.00
5883;BME280;2967;51.488;6.618;2023-01-30T05:46:58;101244.78;;;6.83;100.00
5883;BME280;2967;51.488;6.618;2023-01-30T05:52:02;101148.91;;;6.32;100.00
5883;BME280;2967;51.488;6.618;2023-01-30T05:57:05;101250.53;;;6.93;100.00
5883;BME280;2967;51.488;6.618;2023-01-30T06:02:07;101234.75;;;6.93;100.00
5883;BME280;2967;51.488;6.618;2023-01-30T06:07:14;101233.22;;;7.07;100.00
5883;BME280;2967;51.488;6.618;2023-01-30T06:12:16;101251.38;;;7.13;100.00
5883;BME280;2967;51.488;6.618;2023-01-30T06:17:19;101154.75;;;6.58;100.00
5883;BME280;2967;51.488;6.618;2023-01-30T06:22:23;101249.84;;;7.28;100.00
5883;BME280;2967;51.488;6.618;2023-01-30T06:27:26;101256.00;;;7.47;100.00
5883;BME280;2967;51.488;6.618;2023-01-30T06:32:29;101241.56;;;7.55;100.00
5883;BME280;2967;51.488;6.618;2023-01-30T06:37:37;101256.53;;;7.55;100.00
5883;BME280;2967;51.488;6.618;2023-01-30T06:42:43;101271.59;;;7.51;100.00
5883;BME280;2967;51.488;6.618;2023-01-30T06:47:48;101275.00;;;7.53;100.00
5883;BME280;2967;51.488;6.618;2023-01-30T06:52:53;101284.75;;;7.51;100.00
5883;BME280;2967;51.488;6.618;2023-01-30T06:58:01;101274.06;;;7.54;100.00
5883;BME280;2967;51.488;6.618;2023-01-30T07:03:04;101288.94;;;7.55;100.00
5883;BME280;2967;51.488;6.618;2023-01-30T07:08:08;101288.69;;;7.61;100.00
5883;BME280;2967;51.488;6.618;2023-01-30T07:13:11;101289.63;;;7.60;100.00
5883;BME280;2967;51.488;6.618;2023-01-30T07:18:14;101276.44;;;7.60;100.00
5883;BME280;2967;51.488;6.618;2023-01-30T07:23:18;101286.31;;;7.55;100.00
5883;BME280;2967;51.488;6.618;2023-01-30T07:28:21;101279.50;;;7.51;100.00
5883;BME280;2967;51.488;6.618;2023-01-30T07:33:23;101297.91;;;7.51;100.00
5883;BME280;2967;51.488;6.618;2023-01-30T07:38:27;101302.09;;;7.55;100.00
5883;BME280;2967;51.488;6.618;2023-01-30T07:43:30;101309.38;;;7.50;100.00
5883;BME280;2967;51.488;6.618;2023-01-30T07:48:32;101307.66;;;7.49;100.00
5883;BME280;2967;51.488;6.618;2023-01-30T07:53:36;101308.44;;;7.51;100.00
5883;BME280;2967;51.488;6.618;2023-01-30T07:58:39;101333.06;;;7.50;100.00
5883;BME280;2967;51.488;6.618;2023-01-30T08:03:42;101332.66;;;7.59;100.00
5883;BME280;2967;51.488;6.618;2023-01-30T08:08:47;101325.41;;;7.64;100.00
5883;BME280;2967;51.488;6.618;2023-01-30T08:13:50;101327.81;;;7.68;100.00
5883;BME280;2967;51.488;6.618;2023-01-30T08:18:53;101331.16;;;7.92;100.00
5883;BME280;2967;51.488;6.618;2023-01-30T08:23:57;101313.28;;;7.80;100.00
5883;BME280;2967;51.488;6.618;2023-01-30T08:29:01;101320.34;;;7.60;100.00
5883;BME280;2967;51.488;6.618;2023-01-30T08:34:04;101350.91;;;7.82;100.00
5883;BME280;2967;51.488;6.618;2023-01-30T08:39:09;101353.34;;;7.86;100.00
5883;BME280;2967;51.488;6.618;2023-01-30T08:44:12;101357.38;;;7.75;100.00
5883;BME280;2967;51.488;6.618;2023-01-30T08:49:15;101387.25;;;7.74;100.00
5883;BME280;2967;51.488;6.618;2023-01-30T08:54:19;101406.22;;;7.82;100.00
5883;BME280;2967;51.488;6.618;2023-01-30T08:59:21;101395.94;;;7.76;100.00
5883;BME280;2967;51.488;6.618;2023-01-30T09:04:24;101364.78;;;7.67;100.00
5883;BME280;2967;51.488;6.618;2023-01-30T09:09:29;101364.84;;;7.66;100.00
5883;BME280;2967;51.488;6.618;2023-01-30T09:14:31;101367.78;;;7.78;100.00
5883;BME280;2967;51.488;6.618;2023-01-30T09:19:34;101255.91;;;7.10;100.00
5883;BME280;2967;51.488;6.618;2023-01-30T09:24:38;101385.81;;;7.87;100.00
5883;BME280;2967;51.488;6.618;2023-01-30T09:29:41;101398.50;;;7.97;100.00
5883;BME280;2967;51.488;6.618;2023-01-30T09:34:45;101416.00;;;7.98;100.00
5883;BME280;2967;51.488;6.618;2023-01-30T09:39:49;101419.94;;;8.08;100.00
5883;BME280;2967;51.488;6.618;2023-01-30T09:45:07;101412.63;;;8.15;100.00
5883;BME280;2967;51.488;6.618;2023-01-30T09:50:23;101411.69;;;8.16;100.00
5883;BME280;2967;51.488;6.618;2023-01-30T09:55:32;101407.06;;;8.02;100.00
5883;BME280;2967;51.488;6.618;2023-01-30T10:00:39;101421.66;;;8.09;100.00
5883;BME280;2967;51.488;6.618;2023-01-30T10:05:45;101415.75;;;8.04;100.00
5883;BME280;2967;51.488;6.618;2023-01-30T10:10:56;101427.09;;;7.86;100.00
5883;BME280;2967;51.488;6.618;2023-01-30T10:16:15;101435.88;;;7.87;100.00
5883;BME280;2967;51.488;6.618;2023-01-30T10:21:28;101450.00;;;7.84;100.00
5883;BME280;2967;51.488;6.618;2023-01-30T10:26:34;101439.34;;;7.87;100.00
5883;BME280;2967;51.488;6.618;2023-01-30T10:31:42;101368.19;;;7.49;100.00
5883;BME280;2967;51.488;6.618;2023-01-30T10:36:51;101417.16;;;7.73;100.00
5883;BME280;2967;51.488;6.618;2023-01-30T10:42:08;101408.84;;;7.82;100.00
5883;BME280;2967;51.488;6.618;2023-01-30T10:47:23;101439.91;;;7.94;100.00
5883;BME280;2967;51.488;6.618;2023-01-30T10:52:52;101369.72;;;7.55;100.00
5883;BME280;2967;51.488;6.618;2023-01-30T10:58:04;101438.53;;;8.05;100.00
5883;BME280;2967;51.488;6.618;2023-01-30T11:03:19;101443.66;;;8.08;100.00
5883;BME280;2967;51.488;6.618;2023-01-30T11:08:26;101443.41;;;8.14;100.00
5883;BME280;2967;51.488;6.618;2023-01-30T11:13:32;101455.19;;;8.26;100.00
5883;BME280;2967;51.488;6.618;2023-01-30T11:18:44;101458.69;;;8.26;100.00
5883;BME280;2967;51.488;6.618;2023-01-30T11:24:14;101420.50;;;7.96;100.00
5883;BME280;2967;51.488;6.618;2023-01-30T11:29:28;101388.03;;;7.76;100.00
5883;BME280;2967;51.488;6.618;2023-01-30T11:34:31;101464.19;;;8.22;100.00
5883;BME280;2967;51.488;6.618;2023-01-30T11:39:34;101421.28;;;8.18;100.00
5883;BME280;2967;51.488;6.618;2023-01-30T11:44:39;101350.19;;;7.78;100.00
5883;BME280;2967;51.488;6.618;2023-01-30T11:49:44;101461.59;;;8.59;100.00
5883;BME280;2967;51.488;6.618;2023-01-30T11:55:12;101459.22;;;8.71;100.00
5883;BME280;2967;51.488;6.618;2023-01-30T12:00:19;101446.19;;;8.68;100.00
5883;BME280;2967;51.488;6.618;2023-01-30T12:05:29;101457.19;;;8.78;100.00
5883;BME280;2967;51.488;6.618;2023-01-30T12:10:39;101465.56;;;8.86;100.00
5883;BME280;2967;51.488;6.618;2023-01-30T12:15:44;101465.50;;;8.87;100.00
5883;BME280;2967;51.488;6.618;2023-01-30T12:20:55;101466.16;;;8.92;100.00
5883;BME280;2967;51.488;6.618;2023-01-30T12:26:04;101454.81;;;8.90;100.00
5883;BME280;2967;51.488;6.618;2023-01-30T12:31:13;101464.69;;;8.87;100.00
5883;BME280;2967;51.488;6.618;2023-01-30T12:36:25;101470.72;;;8.89;100.00
5883;BME280;2967;51.488;6.618;2023-01-30T12:41:40;101462.81;;;8.89;100.00
5883;BME280;2967;51.488;6.618;2023-01-30T12:46:59;101482.78;;;8.94;100.00
5883;BME280;2967;51.488;6.618;2023-01-30T12:52:20;101475.84;;;8.92;100.00
5883;BME280;2967;51.488;6.618;2023-01-30T12:57:31;101472.28;;;8.93;100.00
5883;BME280;2967;51.488;6.618;2023-01-30T13:02:51;101491.63;;;8.93;100.00
5883;BME280;2967;51.488;6.618;2023-01-30T13:08:08;101498.72;;;8.91;100.00
5883;BME280;2967;51.488;6.618;2023-01-30T13:13:20;101501.16;;;8.96;100.00
5883;BME280;2967;51.488;6.618;2023-01-30T13:18:32;101508.78;;;9.02;100.00
5883;BME280;2967;51.488;6.618;2023-01-30T13:23:43;101510.78;;;8.97;100.00
5883;BME280;2967;51.488;6.618;2023-01-30T13:28:55;101502.53;;;9.04;100.00
5883;BME280;2967;51.488;6.618;2023-01-30T13:34:04;101515.63;;;9.06;100.00
5883;BME280;2967;51.488;6.618;2023-01-30T13:39:12;101524.34;;;9.08;100.00
5883;BME280;2967;51.488;6.618;2023-01-30T13:44:23;101525.75;;;8.96;100.00
5883;BME280;2967;51.488;6.618;2023-01-30T13:49:37;101551.22;;;8.97;100.00
5883;BME280;2967;51.488;6.618;2023-01-30T13:54:51;101558.00;;;9.03;100.00
5883;BME280;2967;51.488;6.618;2023-01-30T14:00:20;101559.66;;;8.87;100.00
5883;BME280;2967;51.488;6.618;2023-01-30T14:11:25;101578.38;;;8.99;100.00
5883;BME280;2967;51.488;6.618;2023-01-30T14:16:42;101540.94;;;8.73;100.00
5883;BME280;2967;51.488;6.618;2023-01-30T14:21:53;101582.31;;;8.91;100.00
5883;BME280;2967;51.488;6.618;2023-01-30T14:27:22;101604.78;;;8.99;100.00
5883;BME280;2967;51.488;6.618;2023-01-30T14:32:34;101603.94;;;8.99;100.00
5883;BME280;2967;51.488;6.618;2023-01-30T14:38:16;101603.28;;;8.94;100.00
5883;BME280;2967;51.488;6.618;2023-01-30T14:43:50;101513.06;;;8.29;100.00
5883;BME280;2967;51.488;6.618;2023-01-30T14:48:58;101615.31;;;8.81;100.00
5883;BME280;2967;51.488;6.618;2023-01-30T14:54:08;101637.97;;;8.85;100.00
5883;BME280;2967;51.488;6.618;2023-01-30T14:59:29;101636.25;;;8.84;100.00
5883;BME280;2967;51.488;6.618;2023-01-30T15:04:39;101654.47;;;8.90;100.00
5883;BME280;2967;51.488;6.618;2023-01-30T15:09:50;101666.28;;;8.81;100.00
5883;BME280;2967;51.488;6.618;2023-01-30T15:15:03;101677.84;;;8.79;100.00
5883;BME280;2967;51.488;6.618;2023-01-30T15:20:22;101686.97;;;8.70;100.00
5883;BME280;2967;51.488;6.618;2023-01-30T15:25:39;101695.44;;;8.78;100.00
5883;BME280;2967;51.488;6.618;2023-01-30T15:31:00;101704.47;;;8.73;100.00
5883;BME280;2967;51.488;6.618;2023-01-30T15:36:18;101712.25;;;8.76;100.00
5883;BME280;2967;51.488;6.618;2023-01-30T15:41:22;101720.25;;;8.74;100.00
5883;BME280;2967;51.488;6.618;2023-01-30T15:46:37;101720.97;;;8.78;100.00
5883;BME280;2967;51.488;6.618;2023-01-30T15:51:44;101730.78;;;8.74;100.00
5883;BME280;2967;51.488;6.618;2023-01-30T15:56:47;101740.56;;;8.72;100.00
5883;BME280;2967;51.488;6.618;2023-01-30T16:01:59;101748.84;;;8.63;100.00
5883;BME280;2967;51.488;6.618;2023-01-30T16:07:13;101684.88;;;8.17;100.00
5883;BME280;2967;51.488;6.618;2023-01-30T16:12:23;101773.00;;;8.53;100.00
5883;BME280;2967;51.488;6.618;2023-01-30T16:17:29;101782.63;;;8.54;100.00
5883;BME280;2967;51.488;6.618;2023-01-30T16:22:33;101783.69;;;8.50;100.00
5883;BME280;2967;51.488;6.618;2023-01-30T16:27:37;101771.19;;;8.33;100.00
5883;BME280;2967;51.488;6.618;2023-01-30T16:32:42;101806.50;;;8.51;100.00
5883;BME280;2967;51.488;6.618;2023-01-30T16:37:45;101814.81;;;8.83;100.00
5883;BME280;2967;51.488;6.618;2023-01-30T16:42:55;101822.66;;;8.85;100.00
5883;BME280;2967;51.488;6.618;2023-01-30T16:48:21;101826.00;;;8.47;100.00
5883;BME280;2967;51.488;6.618;2023-01-30T16:53:27;101829.94;;;8.37;100.00
5883;BME280;2967;51.488;6.618;2023-01-30T16:58:32;101837.00;;;8.35;100.00
5883;BME280;2967;51.488;6.618;2023-01-30T17:03:39;101848.81;;;8.25;100.00
5883;BME280;2967;51.488;6.618;2023-01-30T17:08:46;101854.22;;;8.22;100.00
5883;BME280;2967;51.488;6.618;2023-01-30T17:14:08;101877.16;;;8.20;100.00
5883;BME280;2967;51.488;6.618;2023-01-30T17:19:12;101890.41;;;8.17;100.00
5883;BME280;2967;51.488;6.618;2023-01-30T17:24:16;101892.34;;;8.12;100.00
5883;BME280;2967;51.488;6.618;2023-01-30T17:29:20;101906.50;;;8.09;100.00
5883;BME280;2967;51.488;6.618;2023-01-30T17:34:44;101916.88;;;8.14;100.00
5883;BME280;2967;51.488;6.618;2023-01-30T17:39:47;101916.94;;;8.12;100.00
5883;BME280;2967;51.488;6.618;2023-01-30T17:44:50;101926.72;;;8.09;100.00
5883;BME280;2967;51.488;6.618;2023-01-30T17:49:54;101926.16;;;8.01;100.00
5883;BME280;2967;51.488;6.618;2023-01-30T17:54:57;101945.50;;;8.00;100.00
5883;BME280;2967;51.488;6.618;2023-01-30T18:00:00;101920.69;;;7.82;100.00
5883;BME280;2967;51.488;6.618;2023-01-30T18:05:11;101959.59;;;7.99;100.00
5883;BME280;2967;51.488;6.618;2023-01-30T18:10:16;101976.25;;;7.99;100.00
5883;BME280;2967;51.488;6.618;2023-01-30T18:15:20;101980.75;;;7.96;100.00
5883;BME280;2967;51.488;6.618;2023-01-30T18:20:24;101983.50;;;7.93;100.00
5883;BME280;2967;51.488;6.618;2023-01-30T18:25:27;101996.63;;;7.94;100.00
5883;BME280;2967;51.488;6.618;2023-01-30T18:30:29;101998.72;;;7.85;100.00
5883;BME280;2967;51.488;6.618;2023-01-30T18:35:36;101950.34;;;7.63;100.00
5883;BME280;2967;51.488;6.618;2023-01-30T18:40:38;101993.25;;;7.91;100.00
5883;BME280;2967;51.488;6.618;2023-01-30T18:45:41;102006.47;;;7.89;100.00
5883;BME280;2967;51.488;6.618;2023-01-30T18:50:45;102000.28;;;7.90;100.00
5883;BME280;2967;51.488;6.618;2023-01-30T18:55:48;101991.84;;;7.81;100.00
5883;BME280;2967;51.488;6.618;2023-01-30T19:00:51;101992.91;;;7.75;100.00
5883;BME280;2967;51.488;6.618;2023-01-30T19:05:55;101985.31;;;7.67;100.00
5883;BME280;2967;51.488;6.618;2023-01-30T19:11:03;101990.56;;;7.68;100.00
5883;BME280;2967;51.488;6.618;2023-01-30T19:16:28;101996.72;;;7.67;100.00
5883;BME280;2967;51.488;6.618;2023-01-30T19:21:33;101999.56;;;7.61;100.00
5883;BME280;2967;51.488;6.618;2023-01-30T19:26:37;102018.19;;;7.55;100.00
5883;BME280;2967;51.488;6.618;2023-01-30T19:31:40;102015.63;;;7.54;100.00
5883;BME280;2967;51.488;6.618;2023-01-30T19:36:45;102028.16;;;7.46;100.00
5883;BME280;2967;51.488;6.618;2023-01-30T19:41:47;102010.19;;;7.32;100.00
5883;BME280;2967;51.488;6.618;2023-01-30T19:46:50;102028.50;;;7.35;100.00
5883;BME280;2967;51.488;6.618;2023-01-30T19:51:54;102040.06;;;7.30;100.00
5883;BME280;2967;51.488;6.618;2023-01-30T19:57:02;102046.31;;;7.27;100.00
5883;BME280;2967;51.488;6.618;2023-01-30T20:02:05;102061.28;;;7.25;100.00
5883;BME280;2967;51.488;6.618;2023-01-30T20:07:09;102071.13;;;7.19;100.00
5883;BME280;2967;51.488;6.618;2023-01-30T20:12:12;102087.00;;;7.17;100.00
5883;BME280;2967;51.488;6.618;2023-01-30T20:17:15;102082.06;;;7.05;100.00
5883;BME280;2967;51.488;6.618;2023-01-30T20:22:19;102088.34;;;7.01;100.00
5883;BME280;2967;51.488;6.618;2023-01-30T20:27:22;102098.13;;;6.96;100.00
5883;BME280;2967;51.488;6.618;2023-01-30T20:32:24;102109.28;;;7.04;100.00
5883;BME280;2967;51.488;6.618;2023-01-30T20:37:28;102112.66;;;7.09;100.00
5883;BME280;2967;51.488;6.618;2023-01-30T20:42:33;102115.34;;;7.06;100.00
5883;BME280;2967;51.488;6.618;2023-01-30T20:47:36;102121.63;;;7.02;100.00
5883;BME280;2967;51.488;6.618;2023-01-30T20:52:42;102101.72;;;6.94;100.00
5883;BME280;2967;51.488;6.618;2023-01-30T20:57:45;102113.88;;;6.98;100.00
5883;BME280;2967;51.488;6.618;2023-01-30T21:02:50;102114.66;;;7.01;100.00
5883;BME280;2967;51.488;6.618;2023-01-30T21:07:54;102116.16;;;6.79;100.00
5883;BME280;2967;51.488;6.618;2023-01-30T21:12:56;102118.88;;;6.76;100.00
5883;BME280;2967;51.488;6.618;2023-01-30T21:17:59;102127.78;;;6.71;100.00
5883;BME280;2967;51.488;6.618;2023-01-30T21:23:03;102129.81;;;6.61;100.00
5883;BME280;2967;51.488;6.618;2023-01-30T21:28:06;102131.31;;;6.70;100.00
5883;BME280;2967;51.488;6.618;2023-01-30T21:33:08;102125.09;;;6.74;100.00
5883;BME280;2967;51.488;6.618;2023-01-30T21:38:12;102109.84;;;6.54;100.00
5883;BME280;2967;51.488;6.618;2023-01-30T21:43:33;102134.72;;;6.73;100.00
5883;BME280;2967;51.488;6.618;2023-01-30T21:48:35;102138.38;;;6.69;100.00
5883;BME280;2967;51.488;6.618;2023-01-30T21:53:39;102153.94;;;6.77;100.00
5883;BME280;2967;51.488;6.618;2023-01-30T21:58:42;102149.44;;;6.80;100.00
5883;BME280;2967;51.488;6.618;2023-01-30T22:03:45;102154.16;;;6.69;100.00
5883;BME280;2967;51.488;6.618;2023-01-30T22:08:52;102160.94;;;6.76;100.00
5883;BME280;2967;51.488;6.618;2023-01-30T22:13:55;102151.41;;;6.72;100.00
5883;BME280;2967;51.488;6.618;2023-01-30T22:19:00;102151.50;;;6.69;100.00
5883;BME280;2967;51.488;6.618;2023-01-30T22:24:06;102142.09;;;6.61;100.00
5883;BME280;2967;51.488;6.618;2023-01-30T22:29:09;102153.34;;;6.66;100.00
5883;BME280;2967;51.488;6.618;2023-01-30T22:34:12;102072.25;;;6.20;100.00
5883;BME280;2967;51.488;6.618;2023-01-30T22:39:16;102165.97;;;6.53;100.00
5883;BME280;2967;51.488;6.618;2023-01-30T22:44:18;102178.50;;;6.44;100.00
5883;BME280;2967;51.488;6.618;2023-01-30T22:49:21;102176.56;;;6.50;100.00
5883;BME280;2967;51.488;6.618;2023-01-30T22:54:25;102172.03;;;6.55;100.00
5883;BME280;2967;51.488;6.618;2023-01-30T22:59:28;102162.53;;;6.50;100.00
5883;BME280;2967;51.488;6.618;2023-01-30T23:04:30;102164.44;;;6.45;100.00
5883;BME280;2967;51.488;6.618;2023-01-30T23:09:34;102163.78;;;6.37;100.00
5883;BME280;2967;51.488;6.618;2023-01-30T23:14:37;102170.72;;;6.39;100.00
5883;BME280;2967;51.488;6.618;2023-01-30T23:19:41;102173.56;;;5.95;100.00
5883;BME280;2967;51.488;6.618;2023-01-30T23:24:44;102169.44;;;6.22;100.00
5883;BME280;2967;51.488;6.618;2023-01-30T23:29:49;102163.41;;;6.17;100.00
5883;BME280;2967;51.488;6.618;2023-01-30T23:34:51;102161.44;;;5.90;100.00
5883;BME280;2967;51.488;6.618;2023-01-30T23:39:55;102178.19;;;6.21;100.00
5883;BME280;2967;51.488;6.618;2023-01-30T23:44:58;102173.38;;;6.38;100.00
5883;BME280;2967;51.488;6.618;2023-01-30T23:50:00;102180.66;;;6.28;100.00
5883;BME280;2967;51.488;6.618;2023-01-30T23:55:05;102163.75;;;6.38;100.00
